Time;durP1;ratioP1;P1;durP2;ratioP2;P2;SDS_P1;SDS_P2;PMS_P1;PMS_P2;Temp;Humidity;BMP_temperature;BMP_pressure;BME280_temperature;BME280_humidity;BME280_pressure;Samples;Min_cycle;Max_cycle;Signal;HPM_P1;HPM_P2
2022/01/25 00:10:42;;;;;;;66.80;39.50;;;;;;;0.43;80.30;101715.89;105203;1287;22725;-83
2022/01/25 00:25:09;;;;;;;60.50;38.70;;;;;;;0.69;80.00;101704.62;105833;1277;24826;-78
2022/01/25 00:27:48;;;;;;;67.80;39.10;;;;;;;0.71;80.23;101703.85;105684;1278;24376;-79
2022/01/25 00:31:14;;;;;;;75.50;42.60;;;;;;;0.76;80.16;101700.80;105764;1281;24221;-78
2022/01/25 00:33:47;;;;;;;65.70;39.60;;;;;;;0.71;80.01;101694.11;105541;1281;24229;-79
2022/01/25 00:36:17;;;;;;;69.20;39.30;;;;;;;0.70;79.92;101687.67;105846;1281;22583;-81
2022/01/25 00:38:45;;;;;;;59.60;32.40;;;;;;;0.74;80.23;101685.26;106032;1278;22582;-78
2022/01/25 00:41:25;;;;;;;54.50;34.40;;;;;;;0.74;80.05;101681.98;106832;1274;25373;-78
2022/01/25 00:43:53;;;;;;;68.60;38.20;;;;;;;0.70;80.23;101676.71;106257;1275;24224;-81
2022/01/25 00:46:23;;;;;;;56.80;34.20;;;;;;;0.64;80.30;101673.81;106186;1277;25551;-81
2022/01/25 00:48:54;;;;;;;63.10;33.90;;;;;;;0.62;80.57;101674.23;105738;1282;22798;-78
2022/01/25 00:56:45;;;;;;;59.60;34.50;;;;;;;0.64;80.72;101675.38;105104;1287;25471;-79
2022/01/25 00:59:19;;;;;;;67.50;40.70;;;;;;;0.57;80.84;101673.44;105107;1287;25538;-76
2022/01/25 01:01:50;;;;;;;62.60;35.10;;;;;;;0.61;81.22;101672.11;105038;1287;22726;-81
2022/01/25 01:04:18;;;;;;;67.90;39.80;;;;;;;0.68;81.24;101672.30;104796;1290;22743;-82
2022/01/25 01:06:47;;;;;;;57.50;33.90;;;;;;;0.74;81.04;101674.70;104858;1284;26495;-78
2022/01/25 01:09:18;;;;;;;60.50;34.90;;;;;;;0.78;80.96;101672.09;105381;1281;25299;-78
2022/01/25 01:11:54;;;;;;;58.60;34.80;;;;;;;0.81;81.12;101669.84;105428;1284;23913;-81
2022/01/25 01:17:35;;;;;;;53.10;31.30;;;;;;;0.86;80.65;101668.17;105565;1281;22868;-80
2022/01/25 01:31:02;;;;;;;64.50;36.60;;;;;;;0.71;81.10;101649.41;106430;1275;22522;-81
2022/01/25 01:44:26;;;;;;;65.80;34.50;;;;;;;0.80;80.93;101634.94;105752;1281;22639;-80
2022/01/25 01:47:06;;;;;;;61.70;35.50;;;;;;;0.79;80.99;101634.16;108286;1278;22586;-78
2022/01/25 01:49:43;;;;;;;64.00;33.20;;;;;;;0.77;81.34;101637.53;107710;1274;22508;-76
2022/01/25 01:52:12;;;;;;;61.60;30.10;;;;;;;0.80;81.48;101632.31;106575;1281;24011;-79
2022/01/25 01:54:40;;;;;;;75.90;38.40;;;;;;;0.79;81.51;101626.72;106384;1275;22625;-78
2022/01/25 01:57:08;;;;;;;60.90;34.60;;;;;;;0.82;81.75;101622.69;105533;1281;22576;-81
2022/01/25 01:59:36;;;;;;;64.10;35.90;;;;;;;0.86;81.58;101621.70;105657;1281;22583;-79
2022/01/25 02:02:05;;;;;;;60.10;33.80;;;;;;;0.85;81.57;101622.37;105205;1281;22660;-76
2022/01/25 02:04:33;;;;;;;74.00;37.40;;;;;;;0.86;81.65;101618.22;105490;1281;25429;-80
2022/01/25 02:07:00;;;;;;;66.70;36.70;;;;;;;0.85;81.48;101616.59;105418;1281;24067;-79
2022/01/25 02:09:27;;;;;;;61.20;33.20;;;;;;;0.82;81.76;101609.51;105631;1278;22668;-77
2022/01/25 02:11:54;;;;;;;69.40;37.40;;;;;;;0.84;81.79;101611.02;105790;1275;23967;-78
2022/01/25 02:14:21;;;;;;;69.20;34.40;;;;;;;0.88;81.93;101612.80;105680;1276;22665;-78
2022/01/25 02:25:08;;;;;;;53.20;28.90;;;;;;;0.90;81.81;101606.81;105820;1276;22635;-77
2022/01/25 02:27:35;;;;;;;62.80;32.30;;;;;;;0.88;81.73;101601.48;105907;1277;23966;-77
2022/01/25 02:30:03;;;;;;;57.10;30.20;;;;;;;0.89;81.89;101597.05;106101;1271;25284;-78
2022/01/25 02:32:30;;;;;;;58.20;29.90;;;;;;;0.82;81.78;101593.39;106167;1271;24378;-77
2022/01/25 02:34:57;;;;;;;48.10;26.60;;;;;;;0.81;81.93;101587.47;106254;1270;22544;-80
2022/01/25 02:37:24;;;;;;;54.20;30.90;;;;;;;0.85;81.92;101577.40;106132;1273;22558;-85
2022/01/25 02:39:51;;;;;;;57.60;31.70;;;;;;;0.88;82.05;101571.30;106052;1274;22562;-83
2022/01/25 02:42:19;;;;;;;51.60;28.90;;;;;;;0.89;81.88;101577.80;106310;1270;22485;-85
2022/01/25 02:44:48;;;;;;;40.20;24.00;;;;;;;0.91;81.87;101582.39;106583;1273;22511;-81
2022/01/25 02:50:04;;;;;;;54.30;28.80;;;;;;;0.97;81.84;101585.65;105998;1273;22724;-79
2022/01/25 02:52:32;;;;;;;55.80;29.50;;;;;;;1.01;81.79;101585.47;106195;1273;25249;-82
2022/01/25 02:55:00;;;;;;;49.70;28.00;;;;;;;1.05;81.78;101585.52;106360;1273;25463;-80
2022/01/25 02:57:29;;;;;;;40.80;24.00;;;;;;;1.03;81.50;101591.99;106237;1273;22621;-82
2022/01/25 03:00:03;;;;;;;41.40;23.90;;;;;;;0.99;81.37;101584.88;106263;1274;24213;-80
2022/01/25 03:02:31;;;;;;;41.80;24.90;;;;;;;0.97;81.31;101580.63;106307;1270;22231;-78
2022/01/25 03:04:58;;;;;;;33.00;17.90;;;;;;;0.93;81.44;101572.77;106360;1270;26639;-84
2022/01/25 03:07:25;;;;;;;41.90;24.20;;;;;;;0.92;81.50;101572.73;106367;1271;25564;-84
2022/01/25 03:09:54;;;;;;;33.00;20.20;;;;;;;0.95;81.82;101571.52;106300;1271;24672;-76
2022/01/25 03:12:33;;;;;;;43.30;25.40;;;;;;;0.95;81.60;101563.70;106341;1270;25195;-80
2022/01/25 03:15:23;;;;;;;44.00;26.80;;;;;;;0.96;81.65;101555.74;106360;1270;24159;-80
2022/01/25 03:17:56;;;;;;;41.10;23.20;;;;;;;1.03;81.79;101551.08;106212;1270;22655;-79
2022/01/25 03:20:37;;;;;;;41.70;23.60;;;;;;;1.06;81.65;101537.70;106325;1270;24294;-79
2022/01/25 03:23:17;;;;;;;38.00;23.20;;;;;;;1.07;81.66;101537.54;105880;1277;22538;-80
2022/01/25 03:25:50;;;;;;;44.00;24.60;;;;;;;1.09;81.64;101536.61;105893;1277;24396;-81
2022/01/25 03:28:19;;;;;;;43.00;25.30;;;;;;;1.14;81.71;101531.64;105891;1280;25259;-80
2022/01/25 03:30:48;;;;;;;40.20;23.40;;;;;;;1.15;81.28;101526.64;105988;1279;22549;-79
2022/01/25 03:33:17;;;;;;;38.80;21.50;;;;;;;1.10;81.27;101523.63;106118;1280;24284;-81
2022/01/25 03:35:46;;;;;;;38.10;23.00;;;;;;;1.08;81.33;101524.41;105775;1280;24298;-79
2022/01/25 03:38:14;;;;;;;42.90;25.00;;;;;;;1.08;81.45;101530.30;105694;1280;24291;-78
2022/01/25 03:40:41;;;;;;;44.60;25.60;;;;;;;1.09;81.50;101531.59;105626;1274;22649;-81
2022/01/25 03:43:09;;;;;;;43.30;24.90;;;;;;;1.16;81.66;101533.27;105830;1274;22557;-81
2022/01/25 03:45:40;;;;;;;38.40;23.10;;;;;;;1.23;81.62;101532.93;105683;1278;25308;-81
2022/01/25 03:51:02;;;;;;;43.20;23.80;;;;;;;1.17;81.28;101531.41;106275;1276;24250;-78
2022/01/25 03:53:29;;;;;;;42.30;23.90;;;;;;;1.14;81.23;101526.59;106183;1277;22583;-76
2022/01/25 03:55:56;;;;;;;39.60;22.30;;;;;;;1.19;81.58;101522.87;106013;1276;24115;-78
2022/01/25 03:58:25;;;;;;;42.10;24.40;;;;;;;1.20;81.17;101517.02;105983;1277;22640;-78
2022/01/25 04:00:52;;;;;;;30.40;17.50;;;;;;;1.19;81.34;101514.36;106079;1276;25252;-80
2022/01/25 04:03:29;;;;;;;41.50;22.70;;;;;;;1.14;81.16;101509.92;106060;1270;25369;-80
2022/01/25 04:05:58;;;;;;;32.30;16.10;;;;;;;1.08;81.37;101507.23;106246;1270;24229;-81
2022/01/25 04:08:25;;;;;;;39.90;22.00;;;;;;;1.01;81.36;101513.14;106185;1270;25622;-79
2022/01/25 04:10:52;;;;;;;41.00;24.00;;;;;;;0.99;81.71;101512.90;106622;1270;24247;-82
2022/01/25 04:13:19;;;;;;;38.80;21.80;;;;;;;1.03;81.77;101504.55;106954;1270;27014;-80
2022/01/25 04:15:48;;;;;;;46.50;24.20;;;;;;;1.02;81.61;101489.77;107165;1270;23989;-79
2022/01/25 04:18:25;;;;;;;41.20;22.40;;;;;;;0.99;81.79;101481.33;107524;1270;22590;-79
2022/01/25 04:21:05;;;;;;;44.20;23.10;;;;;;;1.01;81.96;101475.47;106938;1270;22549;-80
2022/01/25 04:26:18;;;;;;;41.90;22.50;;;;;;;1.11;82.03;101460.34;106836;1270;24216;-81
2022/01/25 04:28:45;;;;;;;42.00;22.60;;;;;;;1.15;81.80;101458.44;106617;1270;25366;-82
2022/01/25 04:31:16;;;;;;;39.80;21.70;;;;;;;1.08;81.60;101457.47;106433;1270;24196;-82
2022/01/25 04:33:55;;;;;;;42.70;23.00;;;;;;;1.07;81.74;101467.09;106239;1271;24256;-79
2022/01/25 04:49:55;;;;;;;41.00;21.70;;;;;;;1.11;81.72;101447.38;106460;1271;22560;-81
2022/01/25 04:52:27;;;;;;;30.40;16.50;;;;;;;1.06;81.80;101447.81;105975;1274;25306;-78
2022/01/25 04:55:13;;;;;;;39.70;20.80;;;;;;;1.05;81.97;101448.61;106184;1274;22674;-75
2022/01/25 04:57:54;;;;;;;43.10;21.90;;;;;;;1.07;82.31;101435.17;106103;1274;22550;-75
2022/01/25 05:00:22;;;;;;;35.30;18.10;;;;;;;1.11;82.18;101422.52;105994;1275;22632;-76
2022/01/25 05:05:40;;;;;;;36.40;19.60;;;;;;;1.16;81.88;101438.38;105783;1280;24124;-80
2022/01/25 05:08:28;;;;;;;34.80;19.00;;;;;;;1.19;81.99;101429.52;105851;1279;24225;-82
2022/01/25 05:11:05;;;;;;;23.60;14.20;;;;;;;1.23;81.88;101421.88;105931;1277;25454;-82
2022/01/25 05:16:28;;;;;;;37.40;20.80;;;;;;;1.24;81.87;101424.33;106008;1274;25721;-80
2022/01/25 05:24:19;;;;;;;33.60;17.80;;;;;;;1.27;81.64;101422.55;106740;1280;22586;-80
2022/01/25 05:30:58;;;;;;;37.80;21.00;;;;;;;1.34;81.75;101425.30;107765;1280;25364;-81
2022/01/25 05:33:25;;;;;;;36.00;20.60;;;;;;;1.35;81.71;101425.00;107418;1281;22560;-81
2022/01/25 05:35:52;;;;;;;25.40;14.80;;;;;;;1.39;81.88;101422.59;107721;1281;22583;-81
2022/01/25 05:38:19;;;;;;;33.70;19.90;;;;;;;1.37;81.45;101415.54;108005;1281;22886;-82
2022/01/25 05:40:55;;;;;;;24.30;14.00;;;;;;;1.39;81.65;101420.84;108453;1276;22795;-80
2022/01/25 05:44:27;;;;;;;29.60;18.30;;;;;;;1.41;81.47;101418.66;108091;1276;22878;-80
2022/01/25 05:49:23;;;;;;;28.80;16.60;;;;;;;1.41;81.49;101429.06;108457;1271;22705;-80
2022/01/25 05:51:51;;;;;;;36.90;19.00;;;;;;;1.40;81.41;101428.70;108812;1271;22881;-83
2022/01/25 05:54:18;;;;;;;34.40;19.80;;;;;;;1.45;81.75;101420.09;106934;1270;24181;-75
2022/01/25 05:56:57;;;;;;;35.20;20.50;;;;;;;1.51;81.54;101412.17;107261;1270;22501;-89
2022/01/25 05:59:24;;;;;;;38.90;21.00;;;;;;;1.53;81.55;101422.65;107357;1270;22584;-81
2022/01/25 06:01:51;;;;;;;22.70;13.40;;;;;;;1.54;81.51;101418.73;107304;1270;24337;-84
2022/01/25 06:04:21;;;;;;;42.20;22.70;;;;;;;1.51;81.31;101421.90;106841;1270;23961;-84
2022/01/25 06:06:52;;;;;;;36.80;20.90;;;;;;;1.52;81.42;101414.79;106589;1270;25361;-83
2022/01/25 06:09:20;;;;;;;37.50;20.50;;;;;;;1.53;81.25;101408.44;106422;1270;22538;-85
2022/01/25 06:11:56;;;;;;;32.60;18.00;;;;;;;1.52;81.29;101413.95;106499;1270;23941;-85
2022/01/25 06:14:26;;;;;;;27.60;15.80;;;;;;;1.46;81.20;101409.85;106476;1271;22657;-81
2022/01/25 06:16:53;;;;;;;29.80;16.90;;;;;;;1.41;81.25;101408.27;106734;1270;24216;-86
2022/01/25 06:19:28;;;;;;;36.20;21.30;;;;;;;1.38;81.40;101409.51;108375;1270;22607;-90
2022/01/25 06:22:54;;;;;;;34.40;17.40;;;;;;;1.36;81.56;101412.20;108766;1270;22505;-91
2022/01/25 06:26:02;;;;;;;41.30;23.00;;;;;;;1.38;81.76;101414.40;108906;1270;22746;-90
2022/01/25 06:28:43;;;;;;;39.90;22.90;;;;;;;1.43;81.77;101400.55;108509;1264;22706;-90
2022/01/25 06:31:34;;;;;;;43.70;20.40;;;;;;;1.40;81.51;101397.12;107889;1277;22608;-91
2022/01/25 06:34:04;;;;;;;35.00;20.00;;;;;;;1.34;81.44;101393.20;108334;1274;22541;-82
2022/01/25 06:36:37;;;;;;;39.10;21.00;;;;;;;1.36;81.68;101393.64;107821;1274;22557;-88
2022/01/25 06:39:27;;;;;;;40.70;21.10;;;;;;;1.37;81.77;101389.87;108284;1274;24283;-87
2022/01/25 06:41:54;;;;;;;40.10;21.70;;;;;;;1.38;81.83;101387.45;106594;1276;22614;-86
2022/01/25 06:44:22;;;;;;;41.10;22.40;;;;;;;1.36;81.83;101388.94;106373;1274;22717;-85
2022/01/25 06:46:50;;;;;;;35.90;20.60;;;;;;;1.42;81.94;101382.63;106375;1274;22574;-84
2022/01/25 06:49:17;;;;;;;30.10;16.70;;;;;;;1.45;81.73;101377.36;106592;1275;24259;-86
2022/01/25 06:52:05;;;;;;;32.80;18.30;;;;;;;1.42;81.67;101377.06;106526;1274;22548;-84
2022/01/25 06:54:33;;;;;;;37.10;20.30;;;;;;;1.44;81.77;101369.33;106301;1277;22569;-85
2022/01/25 06:57:00;;;;;;;36.10;20.50;;;;;;;1.52;82.01;101370.17;106731;1274;22697;-85
2022/01/25 06:59:28;;;;;;;37.00;20.20;;;;;;;1.55;81.59;101373.61;106932;1276;24244;-83
2022/01/25 07:01:55;;;;;;;32.70;18.80;;;;;;;1.50;81.38;101375.15;107966;1275;25260;-82
2022/01/25 07:04:23;;;;;;;37.20;21.70;;;;;;;1.47;81.44;101376.06;106361;1275;22566;-84
2022/01/25 07:06:50;;;;;;;34.40;20.30;;;;;;;1.44;81.53;101379.39;106055;1281;23200;-85
2022/01/25 07:09:18;;;;;;;43.50;21.80;;;;;;;1.41;81.53;101381.87;105850;1281;25536;-82
2022/01/25 07:11:46;;;;;;;33.80;18.50;;;;;;;1.42;81.77;101381.20;105885;1281;25267;-82
2022/01/25 07:14:13;;;;;;;39.00;20.90;;;;;;;1.44;81.69;101380.07;105763;1281;24359;-86
2022/01/25 07:16:41;;;;;;;38.10;22.60;;;;;;;1.48;81.88;101379.07;105675;1281;22588;-83
2022/01/25 07:19:09;;;;;;;38.40;21.30;;;;;;;1.50;81.71;101379.11;105849;1281;24311;-81
2022/01/25 07:21:36;;;;;;;38.70;22.40;;;;;;;1.47;81.77;101379.90;105663;1281;22602;-86
2022/01/25 07:24:05;;;;;;;36.70;20.90;;;;;;;1.49;81.61;101383.77;105671;1284;22579;-85
2022/01/25 07:26:33;;;;;;;36.80;20.40;;;;;;;1.52;81.97;101380.27;105984;1281;22804;-84
2022/01/25 07:29:01;;;;;;;35.00;19.50;;;;;;;1.57;81.82;101380.50;106465;1281;22582;-85
2022/01/25 07:31:28;;;;;;;39.40;20.90;;;;;;;1.52;81.42;101383.58;106389;1281;22657;-84
2022/01/25 07:34:01;;;;;;;32.90;18.90;;;;;;;1.47;81.59;101377.08;106484;1281;22792;-82
2022/01/25 07:36:37;;;;;;;40.10;20.60;;;;;;;1.48;81.73;101373.15;106165;1284;22569;-84
2022/01/25 07:39:20;;;;;;;37.90;21.50;;;;;;;1.54;81.73;101365.96;105998;1284;22528;-84
2022/01/25 07:42:01;;;;;;;33.00;17.50;;;;;;;1.53;81.55;101363.99;106113;1284;22687;-84
2022/01/25 07:44:41;;;;;;;31.20;17.40;;;;;;;1.54;81.77;101362.98;105842;1284;22940;-82
2022/01/25 07:47:15;;;;;;;33.00;18.30;;;;;;;1.51;81.55;101366.50;105898;1284;22563;-83
2022/01/25 07:49:43;;;;;;;32.80;17.80;;;;;;;1.49;81.69;101364.86;106124;1281;25323;-83
2022/01/25 07:52:13;;;;;;;24.60;15.00;;;;;;;1.51;81.84;101360.08;106304;1281;22504;-83
2022/01/25 07:54:42;;;;;;;34.20;18.90;;;;;;;1.52;81.78;101357.53;106156;1276;22622;-85
2022/01/25 07:57:10;;;;;;;36.30;19.90;;;;;;;1.51;81.81;101353.13;106470;1275;22572;-85
2022/01/25 07:59:37;;;;;;;37.70;20.60;;;;;;;1.47;81.82;101354.52;106165;1277;22716;-84
2022/01/25 08:02:05;;;;;;;31.20;16.80;;;;;;;1.45;81.88;101362.94;106333;1276;24302;-85
2022/01/25 08:04:42;;;;;;;32.50;19.50;;;;;;;1.42;81.86;101365.10;106330;1275;22639;-86
2022/01/25 08:07:34;;;;;;;27.60;17.30;;;;;;;1.46;82.13;101356.91;106448;1274;22496;-86
2022/01/25 08:10:48;;;;;;;32.30;18.60;;;;;;;1.49;82.12;101358.27;106117;1274;25494;-84
2022/01/25 08:13:25;;;;;;;28.90;16.40;;;;;;;1.52;81.97;101354.94;106502;1273;24256;-86
2022/01/25 08:16:49;;;;;;;32.20;18.20;;;;;;;1.52;81.96;101361.32;106038;1279;22569;-85
2022/01/25 08:19:49;;;;;;;28.40;17.10;;;;;;;1.49;82.08;101352.86;105214;1284;24102;-82
2022/01/25 08:22:48;;;;;;;24.60;15.20;;;;;;;1.50;82.41;101341.82;105307;1282;24271;-83
2022/01/25 08:25:30;;;;;;;25.10;15.70;;;;;;;1.54;82.25;101336.94;105149;1284;22694;-84
2022/01/25 08:28:01;;;;;;;21.40;13.00;;;;;;;1.54;82.16;101334.35;105543;1286;24195;-83
2022/01/25 08:30:29;;;;;;;23.40;16.50;;;;;;;1.54;82.16;101335.38;105160;1288;23186;-82
2022/01/25 08:33:10;;;;;;;28.60;16.90;;;;;;;1.55;82.29;101331.08;105130;1288;22630;-85
2022/01/25 08:36:00;;;;;;;22.00;15.30;;;;;;;1.60;82.44;101333.20;105140;1287;23083;-82
2022/01/25 08:38:32;;;;;;;15.40;10.70;;;;;;;1.64;82.36;101334.23;104971;1287;25457;-81
2022/01/25 08:41:35;;;;;;;18.10;11.50;;;;;;;1.60;82.10;101331.63;105098;1282;479515;-84
2022/01/25 08:44:09;;;;;;;23.00;15.40;;;;;;;1.60;82.39;101322.79;105576;1282;25944;-84
2022/01/25 08:46:46;;;;;;;20.80;13.50;;;;;;;1.65;82.32;101321.59;105240;1282;24533;-84
2022/01/25 08:49:27;;;;;;;22.90;13.20;;;;;;;1.69;82.33;101318.98;105555;1277;22559;-82
2022/01/25 08:52:10;;;;;;;18.60;12.40;;;;;;;1.74;82.28;101319.05;106194;1275;24288;-87
2022/01/25 08:54:56;;;;;;;22.90;14.50;;;;;;;1.71;82.20;101318.77;106275;1277;25378;-84
2022/01/25 08:57:44;;;;;;;18.20;11.30;;;;;;;1.75;82.32;101317.16;106972;1274;22537;-84
2022/01/25 09:00:50;;;;;;;15.60;10.70;;;;;;;1.74;82.04;101310.87;107037;1274;25983;-84
2022/01/25 09:03:20;;;;;;;18.20;13.00;;;;;;;1.77;82.41;101309.95;107666;1273;24262;-84
2022/01/25 09:05:49;;;;;;;15.90;10.30;;;;;;;1.83;82.19;101308.98;107475;1273;22548;-86
2022/01/25 09:08:23;;;;;;;16.70;12.30;;;;;;;1.82;81.96;101306.14;106616;1273;22557;-83
2022/01/25 09:11:32;;;;;;;17.80;11.60;;;;;;;1.81;82.06;101303.49;107387;1276;25962;-84
2022/01/25 09:13:59;;;;;;;19.70;13.40;;;;;;;1.81;81.99;101293.45;107216;1276;22583;-84
2022/01/25 09:16:28;;;;;;;16.80;12.00;;;;;;;1.80;82.00;101293.38;106476;1277;23032;-84
2022/01/25 09:18:56;;;;;;;14.20;9.60;;;;;;;1.83;82.08;101297.69;106285;1277;26501;-85
2022/01/25 09:21:24;;;;;;;14.40;10.30;;;;;;;1.82;81.95;101296.09;106589;1276;22551;-83
2022/01/25 09:23:51;;;;;;;17.70;12.10;;;;;;;1.80;81.98;101293.38;106135;1276;22807;-84
2022/01/25 09:26:20;;;;;;;18.20;11.70;;;;;;;1.80;82.22;101287.16;106184;1277;25257;-84
2022/01/25 09:28:49;;;;;;;14.50;10.50;;;;;;;1.85;82.26;101291.36;106412;1274;24377;-84
2022/01/25 09:31:19;;;;;;;15.00;11.20;;;;;;;1.89;82.25;101300.03;106537;1273;23913;-87
2022/01/25 09:33:47;;;;;;;17.20;12.50;;;;;;;1.92;82.10;101300.48;106384;1274;23996;-86
2022/01/25 09:36:15;;;;;;;19.40;13.80;;;;;;;1.93;82.12;101303.67;106551;1274;25376;-84
2022/01/25 09:38:43;;;;;;;17.70;11.90;;;;;;;1.96;82.19;101301.20;106322;1273;25261;-84
2022/01/25 09:41:12;;;;;;;16.30;12.00;;;;;;;2.02;82.22;101294.44;106396;1273;23944;-85
2022/01/25 09:43:41;;;;;;;16.40;12.30;;;;;;;2.06;82.08;101295.67;106391;1274;22669;-85
2022/01/25 09:46:09;;;;;;;15.00;12.10;;;;;;;2.06;81.89;101301.05;106343;1273;22807;-83
2022/01/25 09:48:38;;;;;;;16.50;10.70;;;;;;;2.05;81.95;101303.25;106338;1273;22551;-83
2022/01/25 09:51:10;;;;;;;13.70;11.10;;;;;;;2.02;81.75;101303.30;106412;1274;26495;-85
2022/01/25 09:53:40;;;;;;;15.20;11.80;;;;;;;1.98;81.89;101297.05;106224;1273;22601;-84
2022/01/25 09:56:10;;;;;;;16.70;12.40;;;;;;;2.01;82.18;101303.28;106320;1273;22663;-84
2022/01/25 09:58:38;;;;;;;16.60;12.10;;;;;;;2.02;81.96;101295.85;105538;1281;24256;-86
2022/01/25 10:01:07;;;;;;;12.00;9.30;;;;;;;2.06;82.08;101294.77;105801;1281;23328;-84
2022/01/25 10:03:38;;;;;;;14.10;10.60;;;;;;;2.03;81.97;101287.73;105902;1281;25329;-86
2022/01/25 10:09:43;;;;;;;15.70;9.80;;;;;;;2.12;82.10;101280.23;105512;1284;25503;-85
2022/01/25 10:15:34;;;;;;;10.80;7.60;;;;;;;2.08;81.99;101284.26;104942;1290;22845;-84
2022/01/25 10:18:13;;;;;;;13.70;10.60;;;;;;;2.13;82.08;101290.55;104862;1290;22732;-82
2022/01/25 10:20:45;;;;;;;14.60;11.90;;;;;;;2.19;82.10;101286.61;104847;1290;25385;-84
2022/01/25 10:23:35;;;;;;;13.40;9.40;;;;;;;2.22;82.04;101286.57;105073;1284;23101;-83
2022/01/25 10:26:05;;;;;;;16.40;11.10;;;;;;;2.23;81.98;101278.95;105495;1284;22798;-85
2022/01/25 10:28:33;;;;;;;12.90;10.20;;;;;;;2.27;82.06;101280.13;105523;1284;24262;-84
2022/01/25 10:31:04;;;;;;;12.00;9.50;;;;;;;2.33;82.00;101278.27;105664;1285;25806;-85
2022/01/25 10:33:53;;;;;;;;;;;;;;;;;;;;;
2022/01/25 10:37:22;;;;;;;10.40;9.00;;;;;;;2.35;81.81;101278.91;104694;1288;22710;-85
2022/01/25 10:44:11;;;;;;;11.80;9.40;;;;;;;2.41;81.71;101277.91;105288;1287;22606;-85
2022/01/25 10:46:39;;;;;;;13.50;11.10;;;;;;;2.38;81.55;101273.08;105599;1286;24127;-86
2022/01/25 10:49:13;;;;;;;13.60;10.60;;;;;;;2.34;81.67;101270.69;105285;1288;22568;-85
2022/01/25 10:51:46;;;;;;;9.60;7.80;;;;;;;2.36;81.82;101274.93;105967;1282;23153;-85
2022/01/25 10:54:38;;;;;;;11.90;9.20;;;;;;;2.38;81.65;101273.62;106118;1282;23055;-81
2022/01/25 10:57:31;;;;;;;10.90;9.00;;;;;;;2.37;81.71;101275.85;105700;1282;25415;-84
2022/01/25 11:00:21;;;;;;;10.20;9.00;;;;;;;2.44;81.91;101271.92;105585;1284;22600;-82
2022/01/25 11:02:55;;;;;;;12.30;10.20;;;;;;;2.47;81.70;101268.60;105470;1282;25957;-85
2022/01/25 11:05:23;;;;;;;10.70;8.60;;;;;;;2.52;81.70;101268.73;108506;1282;22416;-85
2022/01/25 11:07:51;;;;;;;11.70;8.40;;;;;;;2.54;81.62;101262.23;107673;1274;22763;-83
2022/01/25 11:10:21;;;;;;;11.30;8.40;;;;;;;2.54;81.38;101255.98;109620;1273;22360;-85
2022/01/25 11:13:34;;;;;;;11.50;9.80;;;;;;;2.53;81.47;101254.55;107582;1274;22703;-83
2022/01/25 11:15:38;;;;;;;9.70;8.00;;;;;;;2.58;81.52;101254.20;107482;1275;22686;-83
2022/01/25 11:18:05;;;;;;;11.10;7.70;;;;;;;2.55;81.34;101255.86;107334;1273;22536;-85
2022/01/25 11:20:34;;;;;;;10.00;8.10;;;;;;;2.60;81.57;101257.41;107490;1273;22597;-84
2022/01/25 11:23:04;;;;;;;9.60;8.50;;;;;;;2.65;81.46;101257.42;106949;1273;22490;-81
2022/01/25 11:28:33;;;;;;;11.40;8.00;;;;;;;2.72;81.15;101251.23;107070;1273;22676;-84
2022/01/25 11:31:45;;;;;;;10.00;7.30;;;;;;;2.76;81.15;101249.10;106869;1273;22603;-85
2022/01/25 11:34:17;;;;;;;8.20;6.50;;;;;;;2.85;81.23;101247.02;106780;1275;25362;-85
2022/01/25 11:37:10;;;;;;;9.00;7.00;;;;;;;2.86;80.91;101248.08;106413;1278;22633;-88
2022/01/25 11:39:45;;;;;;;7.90;6.90;;;;;;;2.84;80.89;101243.31;106044;1279;22797;-86
2022/01/25 11:42:53;;;;;;;7.60;6.20;;;;;;;2.81;80.93;101244.62;106147;1278;22572;-85
2022/01/25 11:48:55;;;;;;;8.10;7.20;;;;;;;2.77;80.92;101237.82;105952;1288;22859;-85
2022/01/25 11:51:25;;;;;;;7.90;6.70;;;;;;;2.77;81.09;101238.70;106829;1288;22582;-85
2022/01/25 11:53:53;;;;;;;7.80;6.00;;;;;;;2.77;81.09;101231.06;106227;1288;22622;-85
2022/01/25 11:56:21;;;;;;;7.40;5.60;;;;;;;2.82;81.10;101230.71;106741;1288;22608;-85
2022/01/25 11:58:56;;;;;;;8.20;6.80;;;;;;;2.88;80.99;101231.82;107187;1288;25920;-84
2022/01/25 12:01:27;;;;;;;10.40;6.40;;;;;;;2.92;80.95;101230.38;107483;1284;22698;-84
2022/01/25 12:04:19;;;;;;;9.00;7.50;;;;;;;2.89;80.63;101236.02;107778;1285;22813;-85
2022/01/25 12:07:00;;;;;;;7.20;6.30;;;;;;;2.89;80.85;101240.02;108025;1285;22676;-83
2022/01/25 12:11:05;;;;;;;7.10;5.70;;;;;;;2.92;80.87;101227.61;107316;1284;22722;-85
2022/01/25 12:14:17;;;;;;;8.00;6.40;;;;;;;2.96;80.69;101227.56;106657;1290;25340;-85
2022/01/25 12:17:11;;;;;;;6.60;5.80;;;;;;;2.91;80.60;101228.26;105648;1294;23474;-83
2022/01/25 12:19:58;;;;;;;7.20;6.00;;;;;;;2.86;80.64;101225.48;105451;1294;24134;-83
2022/01/25 12:26:40;;;;;;;;;;;;;;;2.85;80.79;101220.23;105955;1287;22816;-85
2022/01/25 12:29:43;;;;;;;7.30;6.60;;;;;;;2.86;80.88;101213.13;106207;1288;22571;-84
2022/01/25 12:32:19;;;;;;;9.00;6.10;;;;;;;2.87;80.84;101207.22;106269;1284;22693;-85
2022/01/25 12:38:45;;;;;;;9.70;7.20;;;;;;;2.88;80.97;101203.61;106988;1281;22572;-85
2022/01/25 12:41:39;;;;;;;9.20;7.20;;;;;;;2.90;80.77;101200.73;106256;1280;24127;-85
2022/01/25 12:44:07;;;;;;;6.40;5.40;;;;;;;2.89;80.87;101196.51;105647;1288;22723;-84
2022/01/25 12:46:40;;;;;;;6.70;5.50;;;;;;;2.85;80.72;101198.30;105475;1288;22690;-82
2022/01/25 12:49:11;;;;;;;6.10;5.30;;;;;;;2.83;80.77;101201.38;104820;1288;22553;-83
2022/01/25 12:51:42;;;;;;;10.00;7.30;;;;;;;2.81;80.94;101200.25;104513;1296;24243;-86
2022/01/25 12:54:15;;;;;;;8.30;6.60;;;;;;;2.82;81.12;101189.48;104582;1293;22709;-86
2022/01/25 12:56:50;;;;;;;6.80;6.10;;;;;;;2.82;81.02;101199.05;104229;1296;25477;-87
2022/01/25 12:59:24;;;;;;;7.70;6.10;;;;;;;2.85;81.15;101197.45;104205;1296;23327;-85
2022/01/25 13:01:55;;;;;;;8.40;6.40;;;;;;;2.82;81.01;101199.07;104178;1297;22613;-87
2022/01/25 13:04:23;;;;;;;10.10;7.60;;;;;;;2.82;81.11;101197.67;104274;1296;22782;-84
2022/01/25 13:06:52;;;;;;;7.30;6.10;;;;;;;2.81;81.18;101191.39;104794;1294;22644;-82
2022/01/25 13:09:40;;;;;;;6.00;5.30;;;;;;;2.85;81.25;101190.30;105099;1291;22606;-85
2022/01/25 13:12:17;;;;;;;6.60;5.70;;;;;;;2.90;81.01;101186.28;104811;1294;22641;-84
2022/01/25 13:17:38;;;;;;;9.90;7.50;;;;;;;2.93;81.13;101189.34;105892;1292;22928;-85
2022/01/25 13:20:08;;;;;;;9.40;6.80;;;;;;;2.93;81.07;101193.70;105697;1293;22622;-84
2022/01/25 13:22:41;;;;;;;7.60;5.70;;;;;;;2.94;80.97;101191.31;106245;1285;22675;-86
2022/01/25 13:30:38;;;;;;;8.60;6.90;;;;;;;2.90;81.28;101192.20;107400;1281;22686;-83
2022/01/25 13:32:37;;;;;;;8.50;6.80;;;;;;;2.91;81.40;101191.71;106934;1276;22567;-85
2022/01/25 13:35:22;;;;;;;5.80;5.20;;;;;;;2.88;81.44;101184.30;106806;1273;22503;-85
2022/01/25 13:38:06;;;;;;;7.60;6.80;;;;;;;2.89;81.34;101184.17;107002;1274;25377;-87
2022/01/25 13:41:51;;;;;;;6.30;5.60;;;;;;;2.87;81.35;101180.60;108061;1273;24235;-85
2022/01/25 13:46:36;;;;;;;7.80;6.20;;;;;;;2.86;81.59;101181.27;109269;1273;22612;-87
2022/01/25 13:49:19;;;;;;;7.80;6.00;;;;;;;2.87;81.62;101178.33;109512;1273;23044;-90
2022/01/25 13:51:57;;;;;;;10.20;7.20;;;;;;;2.87;81.53;101180.10;108416;1273;22564;-91
2022/01/25 13:54:27;;;;;;;7.80;5.90;;;;;;;2.87;81.72;101175.55;109336;1273;22546;-85
2022/01/25 13:56:56;;;;;;;7.00;5.60;;;;;;;2.89;81.64;101180.86;109292;1273;22682;-88
2022/01/25 13:59:25;;;;;;;9.20;6.20;;;;;;;2.94;81.82;101178.77;109046;1273;22582;-85
2022/01/25 14:01:53;;;;;;;6.70;5.70;;;;;;;3.02;81.71;101179.90;108271;1273;22557;-87
2022/01/25 14:04:30;;;;;;;6.80;5.80;;;;;;;3.04;81.55;101183.97;108789;1279;22614;-88
2022/01/25 14:07:01;;;;;;;8.00;6.80;;;;;;;3.01;81.41;101188.57;108419;1281;22563;-90